createdAt,value
2018-10-09T00:00:23.209Z,72.60
2018-10-09T00:02:51.777Z,72.10
2018-10-09T00:05:20.357Z,71.60
2018-10-09T00:07:49.129Z,72.50
2018-10-09T00:10:17.687Z,72.40
2018-10-09T00:12:46.363Z,72.10
2018-10-09T00:15:14.925Z,71.80
2018-10-09T00:17:43.490Z,71.50
2018-10-09T00:20:16.681Z,72.70
2018-10-09T00:22:45.307Z,72.70
2018-10-09T00:25:13.881Z,73.60
2018-10-09T00:27:42.503Z,72.90
2018-10-09T00:30:11.054Z,73.10
2018-10-09T00:32:40.007Z,72.00
2018-10-09T00:35:08.568Z,73.50
2018-10-09T00:37:37.216Z,73.10
2018-10-09T00:40:06.037Z,73.10
2018-10-09T00:42:34.761Z,73.80
2018-10-09T00:45:03.325Z,74.00
2018-10-09T00:47:32.047Z,73.30
2018-10-09T00:50:00.690Z,73.40
2018-10-09T00:52:29.627Z,72.70
2018-10-09T00:54:58.286Z,73.20
2018-10-09T00:57:26.874Z,73.80
2018-10-09T00:59:55.428Z,74.00
2018-10-09T01:02:23.959Z,73.20
2018-10-09T01:04:52.553Z,73.30
2018-10-09T01:07:21.475Z,73.20
2018-10-09T01:09:50.243Z,73.60
2018-10-09T01:12:19.042Z,73.50
2018-10-09T01:14:47.603Z,73.00
2018-10-09T01:17:16.190Z,73.70
2018-10-09T01:19:44.823Z,73.70
2018-10-09T01:22:13.585Z,74.30
2018-10-09T01:24:42.176Z,74.20
2018-10-09T01:27:10.871Z,74.40
2018-10-09T01:29:39.414Z,74.70
2018-10-09T01:32:07.979Z,73.90
2018-10-09T01:34:36.571Z,74.80
2018-10-09T01:37:05.526Z,74.20
2018-10-09T01:39:34.070Z,74.90
2018-10-09T01:42:02.636Z,74.30
2018-10-09T01:44:31.188Z,74.60
2018-10-09T01:46:59.754Z,74.00
2018-10-09T01:49:28.305Z,74.20
2018-10-09T01:51:56.883Z,73.10
2018-10-09T01:54:25.504Z,73.30
2018-10-09T01:56:54.131Z,73.40
2018-10-09T01:59:22.805Z,73.70
2018-10-09T02:01:51.394Z,73.10
2018-10-09T02:04:19.971Z,73.20
2018-10-09T02:06:48.681Z,74.10
2018-10-09T02:09:17.255Z,74.00
2018-10-09T02:11:46.077Z,74.00
2018-10-09T02:14:14.665Z,74.50
2018-10-09T02:16:43.375Z,74.00
2018-10-09T02:19:11.955Z,75.00
2018-10-09T02:21:40.564Z,75.50
2018-10-09T02:24:09.235Z,75.40
2018-10-09T02:26:37.788Z,75.70
2018-10-09T02:29:06.457Z,75.10
2018-10-09T02:31:35.124Z,75.00
2018-10-09T02:34:03.803Z,74.30
2018-10-09T02:36:32.388Z,74.90
2018-10-09T02:39:00.973Z,74.40
2018-10-09T02:41:29.522Z,74.50
2018-10-09T02:43:58.090Z,74.70
2018-10-09T02:46:26.662Z,75.10
2018-10-09T02:48:55.273Z,75.40
2018-10-09T02:51:23.840Z,74.10
2018-10-09T02:53:52.379Z,74.90
2018-10-09T02:56:20.933Z,74.60
2018-10-09T02:58:49.485Z,74.50
2018-10-09T03:01:18.079Z,74.80
2018-10-09T03:03:46.702Z,75.10
2018-10-09T03:06:15.306Z,74.40
2018-10-09T03:08:43.558Z,74.80
2018-10-09T03:11:12.479Z,74.00
2018-10-09T03:13:41.037Z,75.00
2018-10-09T03:16:09.795Z,74.80
2018-10-09T03:18:38.473Z,73.80
2018-10-09T03:21:07.143Z,74.60
2018-10-09T03:23:35.374Z,74.80
2018-10-09T03:26:03.961Z,74.80
2018-10-09T03:28:32.710Z,74.90
2018-10-09T03:31:01.470Z,74.50
2018-10-09T03:33:30.058Z,75.20
2018-10-09T03:35:58.907Z,75.00
2018-10-09T03:38:27.151Z,75.00
2018-10-09T03:40:55.735Z,74.60
2018-10-09T03:43:24.382Z,74.80
2018-10-09T03:45:52.893Z,73.90
2018-10-09T03:48:21.442Z,74.20
2018-10-09T03:50:50.044Z,73.50
2018-10-09T03:53:18.272Z,74.00
2018-10-09T03:55:46.974Z,73.60
2018-10-09T03:58:15.541Z,74.60
2018-10-09T04:00:44.099Z,74.50
2018-10-09T04:03:12.716Z,74.70
2018-10-09T04:05:41.276Z,74.40
2018-10-09T04:08:09.642Z,75.00
2018-10-09T04:10:38.174Z,75.20
2018-10-09T04:13:06.863Z,74.40
2018-10-09T04:15:35.419Z,74.40
2018-10-09T04:18:04.087Z,74.20
2018-10-09T04:20:32.646Z,73.90
2018-10-09T04:23:01.266Z,74.20
2018-10-09T04:25:29.840Z,74.10
2018-10-09T04:27:58.514Z,74.90
2018-10-09T04:30:27.085Z,74.80
2018-10-09T04:32:55.633Z,74.20
2018-10-09T04:35:24.270Z,75.60
2018-10-09T04:37:52.793Z,74.50
2018-10-09T04:40:21.612Z,74.50
2018-10-09T04:42:50.266Z,75.00
2018-10-09T04:45:18.968Z,74.30
2018-10-09T04:47:47.442Z,74.50
2018-10-09T04:50:15.994Z,74.60
2018-10-09T04:52:44.661Z,74.20
2018-10-09T04:55:13.236Z,74.50
2018-10-09T04:57:42.029Z,73.90
2018-10-09T05:00:10.805Z,74.50
2018-10-09T05:02:39.555Z,74.90
2018-10-09T05:05:08.414Z,75.40
2018-10-09T05:07:37.050Z,75.60
2018-10-09T05:10:06.250Z,75.00
2018-10-09T05:12:35.028Z,75.50
2018-10-09T05:15:03.721Z,75.80
2018-10-09T05:17:32.400Z,75.30
2018-10-09T05:20:00.958Z,74.90
2018-10-09T05:22:29.597Z,75.00
2018-10-09T05:24:58.221Z,75.10
2018-10-09T05:27:26.811Z,74.90
2018-10-09T05:29:55.383Z,74.60
2018-10-09T05:32:24.068Z,74.30
2018-10-09T05:34:52.612Z,75.00
2018-10-09T05:37:21.462Z,75.30
2018-10-09T05:39:50.086Z,74.90
2018-10-09T05:42:18.753Z,74.90
2018-10-09T05:44:47.394Z,74.50
2018-10-09T05:47:15.980Z,73.60
2018-10-09T05:49:44.559Z,74.60
2018-10-09T05:52:13.091Z,75.60
2018-10-09T05:54:41.704Z,75.70
2018-10-09T05:57:10.573Z,74.70
2018-10-09T05:59:39.255Z,74.30
2018-10-09T06:02:08.504Z,74.70
2018-10-09T06:04:37.454Z,75.10
2018-10-09T06:07:06.087Z,74.70
2018-10-09T06:09:34.634Z,74.30
2018-10-09T06:12:03.338Z,74.80
2018-10-09T06:14:31.893Z,73.90
2018-10-09T06:17:00.465Z,74.40
2018-10-09T06:19:29.003Z,74.30
2018-10-09T06:21:57.547Z,74.60
2018-10-09T06:24:26.096Z,75.00
2018-10-09T06:26:54.954Z,75.20
2018-10-09T06:29:23.806Z,74.80
2018-10-09T06:31:52.645Z,75.80
2018-10-09T06:34:21.625Z,75.70
2018-10-09T06:36:50.541Z,76.00
2018-10-09T06:39:19.424Z,75.70
2018-10-09T06:41:48.472Z,75.10
2018-10-09T06:44:17.314Z,75.10
2018-10-09T06:46:46.177Z,75.20
2018-10-09T06:49:15.044Z,76.00
2018-10-09T06:51:43.888Z,75.40
2018-10-09T06:54:12.862Z,75.50
2018-10-09T06:56:41.750Z,75.60
2018-10-09T06:59:10.768Z,74.30
2018-10-09T07:01:39.574Z,73.70
2018-10-09T07:04:08.749Z,73.90
2018-10-09T07:06:37.821Z,74.80
2018-10-09T07:09:10.169Z,74.30
2018-10-09T07:11:39.228Z,75.00
2018-10-09T07:14:08.171Z,74.90
2018-10-09T07:16:36.991Z,75.10
2018-10-09T07:19:06.190Z,75.00
2018-10-09T07:21:35.042Z,74.50
2018-10-09T07:24:03.692Z,74.80
2018-10-09T07:26:32.617Z,74.00
2018-10-09T07:29:01.480Z,75.20
2018-10-09T07:31:30.381Z,74.20
2018-10-09T07:33:59.246Z,74.50
2018-10-09T07:36:28.123Z,75.30
2018-10-09T07:38:56.625Z,75.60
2018-10-09T07:41:25.727Z,74.60
2018-10-09T07:43:54.606Z,75.20
2018-10-09T07:46:23.387Z,75.80
2018-10-09T07:48:52.228Z,75.20
2018-10-09T07:51:21.141Z,76.00
2018-10-09T07:53:49.645Z,75.20
2018-10-09T07:56:18.536Z,74.10
2018-10-09T07:58:47.460Z,75.10
2018-10-09T08:01:16.330Z,75.30
2018-10-09T08:03:45.184Z,75.60
2018-10-09T08:06:14.007Z,75.70
2018-10-09T08:08:42.515Z,76.80
2018-10-09T08:11:11.451Z,77.90
2018-10-09T08:13:44.413Z,78.10
2018-10-09T08:16:13.458Z,79.00
2018-10-09T08:18:42.555Z,78.00
2018-10-09T08:21:11.695Z,77.80
2018-10-09T08:23:40.364Z,78.40
2018-10-09T08:26:09.381Z,77.40
2018-10-09T08:28:38.281Z,78.20
2018-10-09T08:31:07.578Z,79.50
2018-10-09T08:33:36.996Z,78.00
2018-10-09T08:36:06.137Z,78.10
2018-10-09T08:38:34.967Z,77.10
2018-10-09T08:41:04.022Z,77.60
2018-10-09T08:43:40.393Z,77.60
2018-10-09T08:46:14.038Z,77.20
2018-10-09T08:48:44.319Z,77.40
2018-10-09T08:51:18.169Z,76.60
2018-10-09T08:53:48.907Z,76.20
2018-10-09T08:56:19.239Z,74.70
2018-10-09T08:58:49.156Z,74.70
2018-10-09T09:01:18.178Z,75.10
2018-10-09T09:03:47.241Z,74.40
2018-10-09T09:06:17.224Z,75.40
2018-10-09T09:08:45.856Z,72.80
2018-10-09T09:11:14.779Z,73.70
2018-10-09T09:13:43.715Z,71.90
2018-10-09T09:16:12.839Z,72.50
2018-10-09T09:18:43.515Z,71.50
2018-10-09T09:21:12.496Z,67.90
2018-10-09T09:23:41.357Z,69.10
2018-10-09T09:26:12.640Z,66.30
2018-10-09T09:28:41.526Z,67.00
2018-10-09T09:31:12.158Z,65.30
2018-10-09T09:33:41.445Z,64.60
2018-10-09T09:36:10.580Z,63.90
2018-10-09T09:38:39.548Z,62.40
2018-10-09T09:41:09.528Z,63.40
2018-10-09T09:43:38.749Z,61.80
2018-10-09T09:46:08.892Z,60.10
2018-10-09T09:48:38.077Z,59.70
2018-10-09T09:51:07.284Z,62.30
2018-10-09T09:53:36.293Z,58.00
2018-10-09T09:56:05.509Z,57.30
2018-10-09T09:58:35.024Z,59.70
2018-10-09T10:01:07.973Z,58.00
2018-10-09T10:03:38.955Z,55.50
2018-10-09T10:06:10.281Z,53.10
2018-10-09T10:08:39.097Z,53.30
2018-10-09T10:11:08.404Z,52.60
2018-10-09T10:13:37.601Z,53.60
2018-10-09T10:16:07.937Z,52.70
2018-10-09T10:18:37.202Z,50.30
2018-10-09T10:21:07.923Z,51.20
2018-10-09T10:23:38.521Z,49.60
2018-10-09T10:26:10.723Z,52.30
2018-10-09T10:28:40.547Z,48.90
2018-10-09T10:31:10.263Z,51.20
2018-10-09T10:33:39.384Z,47.40
2018-10-09T10:36:08.481Z,47.10
2018-10-09T10:38:37.255Z,48.40
2018-10-09T10:41:06.599Z,48.00
2018-10-09T10:43:35.819Z,48.70
2018-10-09T10:46:05.009Z,45.70
2018-10-09T10:48:34.104Z,44.50
2018-10-09T10:51:03.246Z,47.10
2018-10-09T10:53:32.024Z,46.10
2018-10-09T10:56:01.078Z,46.50
2018-10-09T10:58:30.216Z,44.80
2018-10-09T11:01:00.033Z,42.90
2018-10-09T11:03:29.732Z,42.70
2018-10-09T11:05:59.555Z,42.80
2018-10-09T11:08:28.255Z,42.00
2018-10-09T11:10:58.340Z,44.80
2018-10-09T11:13:27.498Z,43.60
2018-10-09T11:15:56.548Z,42.30
2018-10-09T11:18:25.671Z,41.90
2018-10-09T11:20:54.675Z,41.10
2018-10-09T11:23:23.457Z,42.50
2018-10-09T11:25:52.712Z,39.70
2018-10-09T11:28:21.784Z,40.90
2018-10-09T11:30:50.958Z,38.90
2018-10-09T11:33:20.155Z,40.80
2018-10-09T11:35:49.323Z,38.60
2018-10-09T11:38:18.393Z,40.70
2018-10-09T11:40:47.359Z,40.10
2018-10-09T11:43:16.370Z,41.20
2018-10-09T11:45:45.574Z,38.10
2018-10-09T11:48:14.502Z,37.40
2018-10-09T11:50:43.500Z,38.70
2018-10-09T11:53:13.126Z,37.80
2018-10-09T11:55:42.438Z,35.20
2018-10-09T11:58:11.682Z,35.20
2018-10-09T12:00:42.296Z,36.20
2018-10-09T12:03:12.529Z,36.40
2018-10-09T12:05:41.940Z,37.00
2018-10-09T12:08:11.185Z,34.10
2018-10-09T12:10:40.455Z,33.70
2018-10-09T12:13:09.605Z,34.20
2018-10-09T12:15:38.993Z,36.30
2018-10-09T12:18:08.973Z,32.60
2018-10-09T12:20:38.069Z,32.00
2018-10-09T12:23:07.995Z,30.00
2018-10-09T12:25:39.021Z,33.20
2018-10-09T12:28:09.605Z,29.00
2018-10-09T12:30:40.238Z,29.30
2018-10-09T12:33:11.721Z,30.20
2018-10-09T12:35:42.077Z,33.60
2018-10-09T12:38:11.373Z,31.90
2018-10-09T12:40:40.841Z,32.40
2018-10-09T12:43:10.275Z,29.80
2018-10-09T12:45:39.602Z,30.50
2018-10-09T12:48:09.504Z,29.50
2018-10-09T12:50:41.101Z,29.50
2018-10-09T12:53:12.553Z,32.10
2018-10-09T12:55:42.551Z,32.30
2018-10-09T12:58:13.215Z,28.50
2018-10-09T13:00:43.380Z,28.20
2018-10-09T13:03:15.007Z,27.50
2018-10-09T13:05:46.373Z,26.80
2018-10-09T13:08:15.658Z,27.00
2018-10-09T13:10:45.696Z,26.80
2018-10-09T13:13:14.968Z,26.30
2018-10-09T13:15:45.921Z,26.00
2018-10-09T13:18:20.952Z,26.20
2018-10-09T13:20:55.452Z,27.80
2018-10-09T13:23:27.522Z,27.90
2018-10-09T13:25:57.086Z,25.40
2018-10-09T13:28:26.514Z,25.70
2018-10-09T13:30:55.816Z,26.10
2018-10-09T13:33:25.772Z,26.50
2018-10-09T13:35:55.648Z,24.60
2018-10-09T13:38:24.519Z,26.10
2018-10-09T13:40:53.644Z,26.90
2018-10-09T13:43:23.750Z,26.10
2018-10-09T13:45:52.862Z,25.30
2018-10-09T13:48:22.165Z,25.30
2018-10-09T13:50:53.102Z,25.60
2018-10-09T13:53:22.082Z,26.70
2018-10-09T13:55:51.165Z,24.90
2018-10-09T13:58:22.938Z,25.70
2018-10-09T14:00:51.987Z,25.20
2018-10-09T14:03:21.015Z,25.40
2018-10-09T14:05:50.983Z,23.80
2018-10-09T14:08:21.310Z,27.00
2018-10-09T14:10:50.495Z,25.40
2018-10-09T14:13:19.849Z,24.20
2018-10-09T14:15:48.969Z,26.30
2018-10-09T14:18:18.902Z,25.00
2018-10-09T14:20:47.990Z,23.80
2018-10-09T14:23:17.943Z,22.70
2018-10-09T14:25:47.198Z,24.30
2018-10-09T14:28:17.164Z,23.60
2018-10-09T14:30:46.656Z,24.90
2018-10-09T14:33:15.802Z,25.10
2018-10-09T14:35:45.441Z,24.70
2018-10-09T14:38:14.892Z,23.50
2018-10-09T14:40:44.161Z,22.50
2018-10-09T14:43:13.387Z,21.80
2018-10-09T14:45:43.116Z,22.50
2018-10-09T14:48:12.370Z,23.70
2018-10-09T14:50:41.359Z,23.20
2018-10-09T14:53:10.349Z,22.90
2018-10-09T14:55:39.384Z,22.10
2018-10-09T14:58:08.391Z,22.10
2018-10-09T15:00:37.687Z,24.60
2018-10-09T15:03:07.441Z,24.40
2018-10-09T15:05:37.697Z,24.40
2018-10-09T15:08:06.924Z,24.10
2018-10-09T15:10:35.836Z,24.60
2018-10-09T15:13:05.357Z,25.90
2018-10-09T15:15:35.034Z,24.80
2018-10-09T15:18:03.854Z,24.90
2018-10-09T15:20:33.336Z,25.70
2018-10-09T15:23:02.167Z,25.00
2018-10-09T15:25:31.063Z,24.00
2018-10-09T15:27:59.996Z,25.80
2018-10-09T15:30:29.033Z,26.50
2018-10-09T15:32:58.971Z,25.90
2018-10-09T15:35:32.802Z,26.90
2018-10-09T15:38:03.804Z,27.70
2018-10-09T15:40:33.522Z,28.40
2018-10-09T15:43:04.161Z,27.20
2018-10-09T15:45:33.263Z,26.50
2018-10-09T15:48:05.444Z,27.40
2018-10-09T15:50:36.677Z,26.90
2018-10-09T15:53:05.764Z,27.00
2018-10-09T15:55:37.868Z,27.70
2018-10-09T15:58:09.214Z,27.80
2018-10-09T16:00:40.058Z,28.60
2018-10-09T16:03:09.967Z,29.00
2018-10-09T16:05:38.877Z,29.10
2018-10-09T16:08:07.768Z,29.90
2018-10-09T16:10:36.508Z,30.60
2018-10-09T16:13:05.372Z,30.10
2018-10-09T16:15:34.236Z,30.00
2018-10-09T16:18:04.506Z,31.60
2018-10-09T16:20:33.389Z,31.30
2018-10-09T16:23:02.423Z,32.30
2018-10-09T16:25:32.265Z,32.30
2018-10-09T16:28:01.509Z,33.20
2018-10-09T16:30:30.557Z,33.60
2018-10-09T16:32:59.635Z,33.50
2018-10-09T16:35:29.150Z,34.90
2018-10-09T16:37:58.072Z,35.40
2018-10-09T16:40:27.066Z,34.10
2018-10-09T16:42:56.185Z,34.70
2018-10-09T16:45:25.165Z,34.60
2018-10-09T16:47:55.133Z,34.60
2018-10-09T16:50:23.872Z,35.40
2018-10-09T16:52:52.838Z,34.80
2018-10-09T16:55:21.915Z,36.40
2018-10-09T16:57:50.926Z,35.80
2018-10-09T17:00:21.455Z,36.90
2018-10-09T17:02:51.433Z,37.90
2018-10-09T17:05:20.333Z,38.30
2018-10-09T17:07:49.327Z,38.60
2018-10-09T17:10:18.713Z,38.90
2018-10-09T17:12:49.030Z,40.20
2018-10-09T17:15:18.920Z,40.40
2018-10-09T17:17:47.906Z,40.50
2018-10-09T17:20:16.748Z,41.10
2018-10-09T17:22:45.870Z,41.10
2018-10-09T17:25:14.675Z,41.10
2018-10-09T17:27:44.239Z,42.90
2018-10-09T17:30:14.274Z,43.80
2018-10-09T17:32:43.344Z,44.20
2018-10-09T17:35:12.781Z,45.00
2018-10-09T17:37:42.864Z,45.60
2018-10-09T17:40:11.615Z,45.50
2018-10-09T17:42:40.908Z,45.10
2018-10-09T17:45:09.763Z,45.40
2018-10-09T17:47:39.253Z,46.10
2018-10-09T17:50:08.713Z,47.00
2018-10-09T17:52:37.587Z,47.10
2018-10-09T17:55:07.005Z,46.90
2018-10-09T17:57:36.678Z,47.50
2018-10-09T18:00:07.784Z,48.20
2018-10-09T18:02:36.874Z,48.90
2018-10-09T18:05:05.885Z,49.20
2018-10-09T18:07:37.021Z,49.00
2018-10-09T18:10:06.122Z,50.00
2018-10-09T18:12:36.123Z,50.20
2018-10-09T18:15:06.194Z,50.00
2018-10-09T18:17:35.044Z,50.40
2018-10-09T18:20:04.073Z,50.80
2018-10-09T18:22:33.555Z,50.50
2018-10-09T18:25:04.069Z,51.70
2018-10-09T18:27:32.747Z,51.70
2018-10-09T18:30:02.143Z,52.90
2018-10-09T18:32:32.352Z,52.60
2018-10-09T18:35:06.614Z,51.80
2018-10-09T18:37:35.659Z,52.70
2018-10-09T18:40:05.706Z,53.40
2018-10-09T18:42:35.453Z,53.50
2018-10-09T18:45:04.723Z,53.30
2018-10-09T18:47:39.238Z,53.20
2018-10-09T18:50:08.434Z,53.60
2018-10-09T18:52:37.810Z,54.20
2018-10-09T18:55:09.682Z,54.00
2018-10-09T18:57:39.446Z,54.60
2018-10-09T19:00:09.344Z,54.80
2018-10-09T19:02:39.730Z,55.00
2018-10-09T19:05:10.601Z,54.80
2018-10-09T19:07:40.685Z,55.80
2018-10-09T19:10:10.507Z,55.50
2018-10-09T19:12:39.722Z,55.10
2018-10-09T19:15:09.296Z,56.10
2018-10-09T19:17:38.888Z,56.00
2018-10-09T19:20:09.349Z,56.40
2018-10-09T19:22:40.042Z,57.20
2018-10-09T19:25:09.520Z,57.10
2018-10-09T19:27:39.718Z,57.50
2018-10-09T19:30:08.971Z,56.90
2018-10-09T19:32:38.672Z,57.90
2018-10-09T19:35:08.737Z,57.60
2018-10-09T19:37:38.380Z,57.30
2018-10-09T19:40:07.279Z,57.20
2018-10-09T19:42:39.200Z,57.20
2018-10-09T19:45:08.711Z,57.80
2018-10-09T19:47:43.122Z,57.70
2018-10-09T19:50:11.973Z,58.30
2018-10-09T19:52:40.812Z,58.10
2018-10-09T19:55:11.884Z,58.60
2018-10-09T19:57:40.931Z,58.40
2018-10-09T20:00:11.086Z,58.80
2018-10-09T20:02:40.457Z,60.00
2018-10-09T20:05:13.340Z,60.20
2018-10-09T20:07:42.387Z,60.60
2018-10-09T20:10:11.227Z,60.90
2018-10-09T20:12:40.246Z,60.10
2018-10-09T20:15:10.325Z,59.90
2018-10-09T20:17:39.424Z,59.10
2018-10-09T20:20:09.222Z,60.00
2018-10-09T20:22:38.968Z,60.30
2018-10-09T20:25:08.883Z,60.70
2018-10-09T20:27:42.609Z,60.70
2018-10-09T20:30:12.672Z,60.40
2018-10-09T20:35:14.882Z,61.00
2018-10-09T20:37:44.934Z,61.80
2018-10-09T20:40:16.652Z,62.10
2018-10-09T20:42:45.772Z,61.90
2018-10-09T20:45:15.702Z,61.40
2018-10-09T20:47:47.791Z,61.30
2018-10-09T20:50:16.919Z,61.60
2018-10-09T20:52:49.055Z,61.60
2018-10-09T20:55:18.868Z,61.10
2018-10-09T20:57:47.651Z,60.80
2018-10-09T21:00:17.258Z,62.10
2018-10-09T21:02:46.166Z,61.90
2018-10-09T21:05:15.882Z,62.20
2018-10-09T21:07:45.376Z,62.10
2018-10-09T21:10:14.419Z,62.70
2018-10-09T21:12:43.938Z,62.40
2018-10-09T21:15:12.801Z,62.80
2018-10-09T21:17:41.867Z,62.50
2018-10-09T21:20:10.797Z,63.10
2018-10-09T21:22:40.235Z,62.40
2018-10-09T21:25:09.175Z,62.60
2018-10-09T21:27:39.486Z,62.80
2018-10-09T21:30:09.020Z,63.90
2018-10-09T21:32:40.145Z,63.70
2018-10-09T21:35:09.122Z,63.50
2018-10-09T21:37:40.060Z,63.40
2018-10-09T21:40:09.118Z,64.60
2018-10-09T21:42:38.004Z,63.30
2018-10-09T21:45:07.875Z,64.00
2018-10-09T21:47:38.872Z,64.00
2018-10-09T21:50:07.828Z,64.40
2018-10-09T21:52:36.683Z,64.00
2018-10-09T21:55:05.716Z,63.70
2018-10-09T21:57:35.931Z,64.80
2018-10-09T22:00:05.210Z,65.00
2018-10-09T22:02:34.120Z,64.80
2018-10-09T22:05:03.098Z,65.10
2018-10-09T22:07:38.563Z,65.40
2018-10-09T22:10:07.759Z,65.20
2018-10-09T22:12:37.405Z,65.30
2018-10-09T22:15:07.582Z,65.00
2018-10-09T22:17:36.412Z,64.90
2018-10-09T22:20:05.377Z,64.70
2018-10-09T22:22:34.260Z,66.20
2018-10-09T22:25:03.090Z,66.10
2018-10-09T22:27:32.190Z,65.90
2018-10-09T22:30:01.158Z,66.50
2018-10-09T22:32:31.832Z,65.60
2018-10-09T22:35:00.677Z,65.80
2018-10-09T22:37:29.629Z,66.20
2018-10-09T22:39:58.460Z,66.20
2018-10-09T22:42:27.609Z,66.10
2018-10-09T22:44:57.971Z,67.00
2018-10-09T22:47:27.491Z,66.90
2018-10-09T22:49:56.468Z,66.60
2018-10-09T22:52:25.400Z,67.80
2018-10-09T22:54:55.904Z,67.90
2018-10-09T22:57:24.765Z,68.20
2018-10-09T22:59:53.796Z,67.70
2018-10-09T23:02:22.674Z,68.00
2018-10-09T23:04:51.741Z,67.90
2018-10-09T23:07:21.850Z,67.70
2018-10-09T23:09:50.768Z,67.50
2018-10-09T23:12:19.779Z,67.80
2018-10-09T23:14:48.666Z,67.10
2018-10-09T23:17:17.839Z,67.60
2018-10-09T23:19:47.065Z,67.90
2018-10-09T23:22:24.762Z,67.20
2018-10-09T23:25:00.121Z,67.90
2018-10-09T23:27:29.936Z,68.20
2018-10-09T23:29:58.912Z,68.30
2018-10-09T23:32:28.296Z,68.50
2018-10-09T23:34:57.230Z,67.20
2018-10-09T23:37:27.618Z,67.80
2018-10-09T23:39:58.314Z,68.20
2018-10-09T23:42:27.060Z,67.60
2018-10-09T23:44:59.730Z,68.50
2018-10-09T23:47:29.433Z,68.30
2018-10-09T23:50:00.159Z,67.70
2018-10-09T23:52:29.068Z,68.30
2018-10-09T23:54:58.460Z,68.60
2018-10-09T23:57:29.469Z,68.80
2018-10-09T23:59:59.510Z,68.30
